Time;durP1;ratioP1;P1;durP2;ratioP2;P2;SDS_P1;SDS_P2;PMS_P1;PMS_P2;Temp;Humidity;BMP_temperature;BMP_pressure;BME280_temperature;BME280_humidity;BME280_pressure;Samples;Min_cycle;Max_cycle;Signal;HPM_P1;HPM_P2
2022/10/23 00:01:25;;;;;;;14.90;12.30;;;12.50;99.90;;;;;;5048652;28;20446;-56
2022/10/23 00:03:54;;;;;;;13.00;11.47;;;12.60;99.90;;;;;;5053652;28;20869;-59
2022/10/23 00:06:21;;;;;;;12.80;11.47;;;12.70;99.60;;;;;;5047097;28;20525;-59
2022/10/23 00:08:48;;;;;;;13.53;12.00;;;12.70;90.90;;;;;;5053598;28;20456;-60
2022/10/23 00:11:17;;;;;;;13.03;11.63;;;12.70;90.50;;;;;;5053928;28;20453;-60
2022/10/23 00:13:44;;;;;;;13.30;12.03;;;12.70;71.90;;;;;;5048570;28;20485;-59
2022/10/23 00:16:10;;;;;;;13.10;10.93;;;;;;;;;;5046479;28;20416;-59
2022/10/23 00:18:37;;;;;;;12.90;11.67;;;12.70;72.00;;;;;;5062719;28;20450;-59
2022/10/23 00:21:03;;;;;;;11.37;10.13;;;12.80;71.30;;;;;;5051137;28;20425;-60
2022/10/23 00:23:29;;;;;;;12.87;11.50;;;12.80;45.50;;;;;;5061993;28;20488;-59
2022/10/23 00:25:55;;;;;;;13.13;11.70;;;12.80;44.10;;;;;;5067294;28;20494;-60
2022/10/23 00:28:20;;;;;;;13.97;11.60;;;12.80;43.20;;;;;;5052369;28;20191;-60
2022/10/23 00:30:46;;;;;;;13.60;9.63;;;12.70;33.60;;;;;;5054124;28;20591;-60
2022/10/23 00:33:11;;;;;;;12.03;10.80;;;12.70;34.70;;;;;;5049210;28;20184;-59
2022/10/23 00:35:41;;;;;;;12.37;10.53;;;12.60;47.90;;;;;;5056599;28;20192;-59
2022/10/23 00:38:07;;;;;;;12.57;11.07;;;12.60;51.60;;;;;;5062822;28;20197;-59
2022/10/23 00:40:33;;;;;;;14.70;11.23;;;12.60;52.70;;;;;;5060343;28;20433;-59
2022/10/23 00:42:59;;;;;;;14.47;11.37;;;12.50;45.40;;;;;;5048380;28;21004;-59
2022/10/23 00:45:30;;;;;;;13.80;12.30;;;12.50;55.20;;;;;;5050790;28;20499;-59
2022/10/23 00:47:56;;;;;;;14.20;12.80;;;12.40;52.20;;;;;;5048051;28;20473;-60
2022/10/23 00:50:24;;;;;;;14.63;11.60;;;12.30;51.90;;;;;;5049958;28;20427;-59
2022/10/23 00:52:53;;;;;;;14.77;11.80;;;12.40;54.40;;;;;;5055042;28;20451;-59
2022/10/23 00:55:20;;;;;;;12.63;10.83;;;12.40;53.70;;;;;;5049685;28;20551;-60
2022/10/23 00:57:48;;;;;;;14.00;12.47;;;12.40;55.10;;;;;;5059364;28;20453;-60
2022/10/23 01:00:19;;;;;;;13.17;11.80;;;12.40;55.10;;;;;;5050748;28;20412;-60
2022/10/23 01:02:45;;;;;;;13.93;12.53;;;12.40;56.40;;;;;;5052995;28;20485;-60
2022/10/23 01:05:10;;;;;;;15.20;11.60;;;12.30;54.50;;;;;;5058201;28;20486;-59
2022/10/23 01:07:48;;;;;;;13.50;12.13;;;12.40;54.90;;;;;;5054448;28;20202;-60
2022/10/23 01:10:39;;;;;;;17.90;13.10;;;12.30;51.20;;;;;;5053662;28;20203;-60
2022/10/23 01:13:15;;;;;;;15.77;12.17;;;12.30;54.50;;;;;;5060420;28;20503;-59
2022/10/23 01:15:48;;;;;;;15.30;12.10;;;12.30;53.40;;;;;;5057249;28;20991;-59
2022/10/23 01:18:55;;;;;;;16.80;11.27;;;12.20;62.90;;;;;;5058432;28;22116;-59
2022/10/23 01:21:45;;;;;;;15.80;12.20;;;12.30;58.60;;;;;;5056739;28;20509;-60
2022/10/23 01:24:47;;;;;;;15.13;12.73;;;12.30;61.30;;;;;;5049482;28;20590;-58
2022/10/23 01:27:30;;;;;;;14.40;12.90;;;12.20;64.20;;;;;;5059319;28;20924;-60
2022/10/23 01:30:10;;;;;;;18.93;12.73;;;12.20;58.90;;;;;;5066126;28;20423;-59
2022/10/23 01:33:11;;;;;;;14.30;12.57;;;12.20;56.80;;;;;;5055791;28;20436;-59
2022/10/23 01:35:48;;;;;;;16.47;14.20;;;12.10;62.00;;;;;;5047141;28;20433;-59
2022/10/23 01:38:29;;;;;;;14.40;11.70;;;12.20;66.10;;;;;;5062750;28;20468;-59
2022/10/23 01:41:01;;;;;;;16.43;12.33;;;12.10;60.10;;;;;;5065886;28;20866;-60
2022/10/23 01:43:34;;;;;;;14.83;12.63;;;12.10;70.30;;;;;;5056725;28;20946;-59
2022/10/23 01:46:04;;;;;;;17.10;13.30;;;12.10;70.00;;;;;;5056812;28;20453;-60
2022/10/23 01:48:33;;;;;;;14.87;12.00;;;12.10;72.50;;;;;;5058973;28;20457;-58
2022/10/23 01:51:03;;;;;;;16.43;13.27;;;12.10;71.40;;;;;;5051763;28;20448;-59
2022/10/23 01:53:33;;;;;;;14.07;11.93;;;12.10;69.50;;;;;;5048985;28;20420;-59
2022/10/23 01:56:01;;;;;;;13.07;11.43;;;12.10;69.90;;;;;;5051447;28;20864;-60
2022/10/23 01:58:29;;;;;;;17.43;12.43;;;12.10;70.90;;;;;;5051943;28;20500;-58
2022/10/23 02:00:58;;;;;;;13.10;11.73;;;12.10;63.90;;;;;;5052464;28;20446;-60
2022/10/23 02:03:27;;;;;;;17.10;13.00;;;14.60;74.30;;;;;;5051838;28;20879;-60
2022/10/23 02:05:53;;;;;;;15.23;12.63;;;12.10;68.00;;;;;;5063967;28;20560;-60
2022/10/23 02:08:19;;;;;;;14.40;11.80;;;12.10;70.50;;;;;;5060348;28;20985;-59
2022/10/23 02:10:59;;;;;;;13.77;11.97;;;12.00;68.60;;;;;;5053411;28;20183;-59
2022/10/23 02:13:32;;;;;;;15.30;12.07;;;12.10;72.00;;;;;;5047373;28;20227;-60
2022/10/23 02:16:15;;;;;;;13.30;11.63;;;12.10;69.30;;;;;;5049225;28;20484;-59
2022/10/23 02:19:18;;;;;;;20.13;12.37;;;12.10;63.30;;;;;;5058163;28;20969;-59
2022/10/23 02:22:06;;;;;;;15.73;11.40;;;12.10;68.10;;;;;;5061573;28;20476;-59
2022/10/23 02:24:38;;;;;;;13.27;11.87;;;12.10;62.90;;;;;;5049861;28;20422;-60
2022/10/23 02:27:11;;;;;;;15.20;13.60;;;12.10;67.20;;;;;;5048573;28;20451;-60
2022/10/23 02:29:42;;;;;;;14.90;12.07;;;12.10;65.80;;;;;;5052006;28;20453;-60
2022/10/23 02:32:10;;;;;;;14.93;12.40;;;12.20;62.60;;;;;;5051797;28;20449;-61
2022/10/23 02:34:36;;;;;;;13.90;12.23;;;12.10;57.80;;;;;;5058343;28;20435;-59
2022/10/23 02:37:01;;;;;;;15.30;13.13;;;12.10;57.40;;;;;;5061642;28;20423;-59
2022/10/23 02:39:28;;;;;;;14.07;12.57;;;12.10;58.60;;;;;;5055983;28;20450;-59
2022/10/23 02:42:12;;;;;;;15.33;12.10;;;12.10;55.40;;;;;;5057933;28;20183;-60
2022/10/23 02:45:02;;;;;;;14.57;12.37;;;12.10;57.40;;;;;;5061682;28;21210;-59
2022/10/23 02:47:39;;;;;;;15.50;12.23;;;12.10;59.60;;;;;;5057001;28;20437;-60
2022/10/23 02:50:32;;;;;;;15.47;13.03;;;12.10;62.40;;;;;;5055988;28;20524;-59
2022/10/23 02:53:18;;;;;;;15.87;12.73;;;12.10;58.10;;;;;;5052476;28;20508;-60
2022/10/23 02:55:57;;;;;;;16.40;11.47;;;12.10;56.30;;;;;;5055478;28;20449;-59
2022/10/23 02:58:59;;;;;;;14.43;12.80;;;15.80;60.00;;;;;;5057548;28;20448;-59
2022/10/23 03:01:49;;;;;;;16.17;13.40;;;12.20;55.90;;;;;;5056336;28;20445;-59
2022/10/23 03:04:17;;;;;;;13.43;12.03;;;12.20;54.30;;;;;;5043687;28;20955;-59
2022/10/23 03:06:43;;;;;;;16.60;13.10;;;12.20;59.50;;;;;;5056881;28;20505;-60
2022/10/23 03:09:09;;;;;;;16.20;13.03;;;12.20;58.20;;;;;;5050880;28;20447;-59
2022/10/23 03:11:35;;;;;;;15.43;13.50;;;12.20;57.10;;;;;;5055979;28;20484;-60
2022/10/23 03:14:00;;;;;;;16.17;13.10;;;12.10;57.90;;;;;;5056640;28;20480;-59
2022/10/23 03:16:26;;;;;;;15.20;13.07;;;12.10;58.80;;;;;;5056480;28;20182;-59
2022/10/23 03:18:52;;;;;;;15.77;13.80;;;12.10;57.80;;;;;;5063155;28;20183;-59
2022/10/23 03:21:18;;;;;;;18.90;14.27;;;12.00;62.30;;;;;;5053624;28;20798;-58
2022/10/23 03:23:43;;;;;;;17.50;13.73;;;12.00;60.30;;;;;;5055637;28;20187;-59
2022/10/23 03:26:09;;;;;;;15.83;13.10;;;12.00;60.20;;;;;;5054521;28;20817;-59
2022/10/23 03:28:35;;;;;;;15.30;12.53;;;12.00;60.40;;;;;;5059452;28;20183;-59
2022/10/23 03:31:02;;;;;;;16.27;13.70;;;12.00;65.00;;;;;;5063936;28;20645;-59
2022/10/23 03:33:28;;;;;;;15.33;13.03;;;11.90;66.60;;;;;;5059550;28;20704;-59
2022/10/23 03:35:54;;;;;;;16.87;13.20;;;11.90;74.10;;;;;;5052694;28;20413;-59
2022/10/23 03:38:19;;;;;;;17.33;12.87;;;11.90;74.40;;;;;;5061132;28;20438;-58
2022/10/23 03:40:45;;;;;;;14.17;12.70;;;11.90;70.10;;;;;;5066183;28;20266;-59
2022/10/23 03:43:10;;;;;;;14.57;13.07;;;11.90;66.70;;;;;;5055668;28;20266;-59
2022/10/23 03:45:37;;;;;;;15.73;12.50;;;11.80;67.60;;;;;;5051882;28;20248;-59
2022/10/23 03:48:06;;;;;;;16.87;12.83;;;11.80;80.60;;;;;;5050300;28;20211;-59
2022/10/23 03:50:32;;;;;;;16.40;13.60;;;11.80;87.80;;;;;;5050660;28;20474;-59
2022/10/23 03:52:58;;;;;;;17.07;13.20;;;11.80;96.80;;;;;;5057823;28;20885;-59
2022/10/23 03:55:25;;;;;;;15.60;13.70;;;11.80;99.10;;;;;;5070403;28;20514;-58
2022/10/23 03:57:52;;;;;;;17.43;13.20;;;11.70;99.90;;;;;;5047753;28;20196;-59
2022/10/23 04:00:17;;;;;;;19.67;14.60;;;11.70;99.90;;;;;;5050623;28;20455;-59
2022/10/23 04:02:43;;;;;;;17.80;13.30;;;11.70;99.90;;;;;;5046693;28;20452;-59
2022/10/23 04:05:09;;;;;;;14.13;12.60;;;11.70;99.90;;;;;;5058800;28;20243;-59
2022/10/23 04:07:35;;;;;;;16.80;14.40;;;;;;;;;;5050119;28;20226;-58
2022/10/23 04:10:00;;;;;;;16.50;14.37;;;11.70;99.90;;;;;;5049094;28;20207;-59
2022/10/23 04:12:26;;;;;;;19.80;15.20;;;11.70;99.90;;;;;;5048269;28;20811;-60
2022/10/23 04:14:51;;;;;;;19.40;14.33;;;11.70;99.90;;;;;;5059136;28;20190;-59
2022/10/23 04:17:17;;;;;;;17.37;14.00;;;11.70;99.90;;;;;;5046891;28;20216;-61
2022/10/23 04:19:42;;;;;;;17.97;14.70;;;11.60;99.90;;;;;;5051270;28;20669;-59
2022/10/23 04:22:08;;;;;;;19.43;15.10;;;11.70;99.90;;;;;;5045862;28;20234;-59
2022/10/23 04:24:34;;;;;;;21.00;15.00;;;11.70;99.90;;;;;;5055546;28;20184;-60
2022/10/23 04:26:59;;;;;;;18.43;14.80;;;11.80;99.90;;;;;;5056868;28;20623;-58
2022/10/23 04:29:25;;;;;;;19.57;16.00;;;11.70;99.90;;;;;;5052621;28;20176;-59
2022/10/23 04:31:50;;;;;;;20.17;16.03;;;11.70;99.90;;;;;;5044174;28;20179;-58
2022/10/23 04:34:17;;;;;;;18.00;14.80;;;11.70;99.90;;;;;;5049689;28;20243;-59
2022/10/23 04:36:43;;;;;;;23.83;14.93;;;11.70;99.90;;;;;;5049160;28;20199;-60
2022/10/23 04:39:09;;;;;;;22.20;16.43;;;11.70;99.90;;;;;;5047229;28;20449;-61
2022/10/23 04:41:34;;;;;;;19.50;14.63;;;11.70;99.90;;;;;;5056116;28;20188;-58
2022/10/23 04:44:00;;;;;;;20.57;15.80;;;11.70;99.90;;;;;;5049976;28;20796;-58
2022/10/23 04:46:26;;;;;;;19.50;14.77;;;11.70;99.90;;;;;;5054262;28;20219;-58
2022/10/23 04:48:51;;;;;;;19.20;15.20;;;11.70;99.90;;;;;;5057881;28;20199;-59
2022/10/23 04:51:17;;;;;;;21.70;15.90;;;11.70;99.90;;;;;;5046053;28;20197;-58
2022/10/23 04:53:42;;;;;;;22.33;16.17;;;11.70;99.90;;;;;;5050663;28;20182;-58
2022/10/23 04:56:13;;;;;;;21.10;15.40;;;11.70;99.90;;;;;;5048219;28;20184;-58
2022/10/23 04:58:41;;;;;;;24.60;17.13;;;11.70;99.90;;;;;;5050545;28;20184;-58
2022/10/23 05:01:09;;;;;;;27.17;17.40;;;11.70;99.90;;;;;;5055748;28;20466;-58
2022/10/23 05:03:35;;;;;;;24.00;17.17;;;11.70;99.90;;;;;;5058546;28;20815;-58
2022/10/23 05:06:01;;;;;;;24.47;18.47;;;11.70;99.90;;;;;;5053968;28;20471;-58
2022/10/23 05:08:26;;;;;;;22.87;16.80;;;11.60;99.90;;;;;;5057104;28;21026;-58
2022/10/23 05:10:52;;;;;;;21.07;15.70;;;11.60;99.90;;;;;;5059918;28;20168;-58
2022/10/23 05:13:18;;;;;;;21.60;17.13;;;11.60;99.90;;;;;;5062386;28;20571;-58
2022/10/23 05:15:57;;;;;;;22.03;15.73;;;11.70;99.90;;;;;;5063109;28;20229;-57
2022/10/23 05:18:27;;;;;;;20.00;16.30;;;11.60;99.90;;;;;;5065257;28;20427;-57
2022/10/23 05:20:58;;;;;;;20.67;15.47;;;11.60;99.90;;;;;;5065157;28;20449;-58
2022/10/23 05:23:25;;;;;;;22.17;15.70;;;11.60;99.90;;;;;;5058019;28;20914;-58
2022/10/23 05:25:51;;;;;;;19.40;15.60;;;11.60;99.90;;;;;;5064086;28;20436;-59
2022/10/23 05:28:16;;;;;;;22.97;15.80;;;11.70;99.90;;;;;;5064563;28;20445;-59
2022/10/23 05:30:42;;;;;;;23.07;16.10;;;11.70;99.90;;;;;;5056948;28;20175;-58
2022/10/23 05:33:09;;;;;;;21.90;16.30;;;11.70;99.90;;;;;;5062470;28;20175;-59
2022/10/23 05:35:36;;;;;;;20.63;16.80;;;11.70;99.90;;;;;;5064822;28;20416;-59
2022/10/23 05:38:02;;;;;;;21.90;16.97;;;11.70;99.90;;;;;;5061365;28;21044;-58
2022/10/23 05:40:28;;;;;;;23.40;16.23;;;11.70;99.90;;;;;;5057761;28;20971;-58
2022/10/23 05:42:54;;;;;;;20.87;15.97;;;11.80;99.90;;;;;;5053585;28;20437;-59
2022/10/23 05:45:20;;;;;;;25.10;17.30;;;11.80;99.90;;;;;;5052903;28;21037;-58
2022/10/23 05:47:47;;;;;;;25.10;18.23;;;11.80;99.90;;;;;;5048554;28;20439;-59
2022/10/23 05:50:13;;;;;;;19.27;15.57;;;11.90;99.90;;;;;;5069178;28;20230;-58
2022/10/23 05:52:39;;;;;;;19.17;15.20;;;11.90;99.90;;;;;;5050736;28;20449;-58
2022/10/23 05:55:05;;;;;;;25.43;16.77;;;11.90;99.90;;;;;;5062107;28;20183;-58
2022/10/23 05:57:34;;;;;;;23.37;16.67;;;11.80;99.90;;;;;;5048462;28;20655;-58
2022/10/23 05:59:59;;;;;;;22.03;16.30;;;11.90;99.90;;;;;;5053132;28;20446;-59
2022/10/23 06:02:25;;;;;;;21.90;15.40;;;11.90;99.90;;;;;;5056239;28;20423;-59
2022/10/23 06:04:50;;;;;;;21.73;16.10;;;11.90;99.90;;;;;;5051708;28;20188;-59
2022/10/23 06:07:16;;;;;;;24.57;17.47;;;11.90;99.90;;;;;;5057762;28;20188;-58
2022/10/23 06:09:41;;;;;;;26.50;18.00;;;11.90;99.90;;;;;;5055118;28;20236;-58
2022/10/23 06:12:07;;;;;;;21.10;14.87;;;11.90;99.90;;;;;;5062107;28;20667;-58
2022/10/23 06:14:33;;;;;;;18.40;15.60;;;11.90;99.90;;;;;;5049469;28;20192;-59
2022/10/23 06:16:58;;;;;;;24.63;15.87;;;11.90;99.90;;;;;;5046031;28;20294;-59
2022/10/23 06:19:24;;;;;;;19.33;15.07;;;12.00;99.90;;;;;;5050065;28;20187;-60
2022/10/23 06:21:49;;;;;;;19.37;15.07;;;12.10;99.90;;;;;;5048967;28;20214;-59
2022/10/23 06:24:15;;;;;;;21.10;15.60;;;12.10;99.90;;;;;;5050401;28;20430;-58
2022/10/23 06:26:40;;;;;;;16.50;13.57;;;12.10;99.90;;;;;;5062812;28;20650;-59
2022/10/23 06:29:07;;;;;;;23.83;15.50;;;12.20;99.90;;;;;;5065180;28;20177;-58
2022/10/23 06:31:32;;;;;;;20.43;14.80;;;12.20;99.90;;;;;;5059132;28;20249;-59
2022/10/23 06:33:58;;;;;;;19.97;15.37;;;12.30;99.90;;;;;;5055451;28;20420;-59
2022/10/23 06:36:25;;;;;;;19.17;15.67;;;12.40;99.90;;;;;;5063009;28;20191;-59
2022/10/23 06:38:51;;;;;;;19.70;15.13;;;12.40;99.90;;;;;;5064430;28;20883;-59
2022/10/23 06:41:18;;;;;;;19.77;15.00;;;12.40;99.90;;;;;;5063089;28;20475;-59
2022/10/23 06:43:46;;;;;;;20.27;16.23;;;12.50;99.90;;;;;;5061725;28;20230;-59
2022/10/23 06:46:12;;;;;;;21.03;15.50;;;12.50;99.90;;;;;;5060286;28;20809;-58
2022/10/23 06:48:39;;;;;;;20.40;13.73;;;12.60;99.90;;;;;;5063430;28;20458;-58
2022/10/23 06:51:07;;;;;;;17.97;14.23;;;12.60;99.90;;;;;;5056117;28;20322;-59
2022/10/23 06:53:35;;;;;;;18.43;13.83;;;12.60;99.90;;;;;;5053286;28;20565;-59
2022/10/23 06:56:03;;;;;;;15.20;13.60;;;12.70;99.90;;;;;;5055195;28;20462;-59
2022/10/23 06:58:29;;;;;;;20.97;13.43;;;12.70;99.90;;;;;;5048406;28;20446;-59
2022/10/23 07:00:55;;;;;;;16.07;13.80;;;12.70;99.90;;;;;;5053230;28;20910;-59
2022/10/23 07:03:20;;;;;;;15.93;13.50;;;12.80;99.90;;;;;;5049003;28;20461;-59
2022/10/23 07:05:46;;;;;;;17.17;13.67;;;12.90;93.00;;;;;;5048347;28;20439;-59
2022/10/23 07:08:12;;;;;;;17.40;13.93;;;13.00;70.40;;;;;;5053026;28;20213;-58
2022/10/23 07:10:41;;;;;;;17.80;13.60;;;13.00;66.80;;;;;;5058904;28;20184;-58
2022/10/23 07:13:10;;;;;;;13.33;11.93;;;13.00;70.90;;;;;;5053098;28;20827;-58
2022/10/23 07:15:37;;;;;;;19.00;14.43;;;13.10;58.80;;;;;;5051150;28;20536;-58
2022/10/23 07:18:03;;;;;;;16.87;12.87;;;13.20;54.30;;;;;;5056564;28;20444;-59
2022/10/23 07:20:29;;;;;;;19.10;14.03;;;13.30;42.70;;;;;;5060289;28;20435;-58
2022/10/23 07:22:55;;;;;;;18.63;13.93;;;13.40;30.30;;;;;;5053886;28;20441;-58
2022/10/23 07:25:22;;;;;;;15.30;13.10;;;13.40;22.70;;;;;;5063240;28;20204;-59
2022/10/23 07:27:48;;;;;;;17.93;13.70;;;13.50;18.10;;;;;;5055541;28;20436;-58
2022/10/23 07:30:14;;;;;;;16.23;12.60;;;13.60;8.10;;;;;;5057972;28;20412;-59
2022/10/23 07:32:40;;;;;;;14.07;12.00;;;14.70;1.00;;;;;;5050912;28;20420;-59
2022/10/23 07:35:06;;;;;;;15.30;12.27;;;13.70;1.00;;;;;;5056445;28;21238;-59
2022/10/23 07:37:31;;;;;;;12.63;11.43;;;13.70;1.00;;;;;;5051755;28;20584;-58
2022/10/23 07:39:57;;;;;;;13.70;12.03;;;13.90;1.00;;;;;;5052125;28;20535;-59
2022/10/23 07:42:23;;;;;;;14.13;11.33;;;13.90;1.00;;;;;;5057208;28;20165;-59
2022/10/23 07:44:48;;;;;;;14.60;11.83;;;14.10;1.00;;;;;;5051293;28;21467;-60
2022/10/23 07:47:14;;;;;;;11.83;10.60;;;14.30;1.00;;;;;;5058247;28;20510;-59
2022/10/23 07:49:39;;;;;;;15.10;11.90;;;14.40;1.00;;;;;;5054754;28;20237;-58
2022/10/23 07:52:05;;;;;;;13.00;10.50;;;14.40;1.00;;;;;;5050084;28;20191;-59
2022/10/23 07:54:31;;;;;;;14.00;10.43;;;14.60;1.00;;;;;;5048582;28;20215;-60
2022/10/23 07:56:58;;;;;;;10.97;9.87;;;14.70;1.00;;;;;;5045556;28;20519;-58
2022/10/23 07:59:24;;;;;;;12.70;10.03;;;14.70;1.00;;;;;;5044919;28;20264;-58
2022/10/23 08:01:50;;;;;;;10.83;8.77;;;14.80;1.00;;;;;;5050014;28;20453;-58
2022/10/23 08:04:16;;;;;;;9.63;8.63;;;;;;;;;;5045585;28;20689;-59
2022/10/23 08:06:41;;;;;;;12.27;9.60;;;14.80;1.00;;;;;;5048612;28;20571;-59
2022/10/23 08:09:07;;;;;;;10.60;9.20;;;14.80;1.00;;;;;;5049516;28;20452;-58
2022/10/23 08:11:36;;;;;;;10.03;8.80;;;14.80;1.00;;;;;;5050058;28;20185;-58
2022/10/23 08:14:04;;;;;;;14.27;8.60;;;15.10;1.00;;;;;;5048771;28;20193;-59
2022/10/23 08:16:31;;;;;;;11.27;8.83;;;15.30;1.00;;;;;;5041626;28;20447;-59
2022/10/23 08:18:57;;;;;;;10.40;9.40;;;15.30;1.00;;;;;;5049335;28;20432;-58
2022/10/23 08:21:23;;;;;;;8.83;7.93;;;15.40;1.00;;;;;;5052742;28;20418;-59
2022/10/23 08:23:51;;;;;;;10.37;9.17;;;15.50;1.00;;;;;;5057624;28;20917;-59
2022/10/23 08:26:17;;;;;;;9.53;8.23;;;15.90;1.00;;;;;;5062037;28;20474;-59
2022/10/23 08:28:42;;;;;;;10.60;8.27;;;15.90;1.00;;;;;;5057065;28;20417;-59
2022/10/23 08:31:11;;;;;;;9.67;8.67;;;16.20;1.00;;;;;;5054555;28;20184;-59
2022/10/23 08:33:37;;;;;;;9.07;8.17;;;16.60;1.00;;;;;;5060306;28;20186;-59
2022/10/23 08:36:03;;;;;;;9.00;8.10;;;16.60;1.00;;;;;;5061068;28;20455;-59
2022/10/23 08:38:29;;;;;;;10.47;8.20;;;16.50;1.00;;;;;;5062325;28;20445;-60
2022/10/23 08:40:55;;;;;;;9.60;8.13;;;;;;;;;;5062598;28;20243;-60
2022/10/23 08:43:40;;;;;;;8.30;7.33;;;16.50;1.00;;;;;;5063380;28;20201;-60
2022/10/23 08:46:11;;;;;;;8.40;7.10;;;16.50;1.00;;;;;;5045976;28;20473;-59
2022/10/23 08:48:47;;;;;;;8.40;7.30;;;16.50;1.00;;;;;;5059721;28;20453;-59
2022/10/23 08:51:15;;;;;;;8.90;7.00;;;16.70;1.00;;;;;;5061810;28;20414;-59
2022/10/23 08:53:53;;;;;;;9.80;7.60;;;16.70;1.00;;;;;;5062751;28;20446;-58
2022/10/23 08:56:29;;;;;;;8.30;7.27;;;17.10;1.00;;;;;;5061911;28;20668;-58
2022/10/23 08:59:19;;;;;;;9.20;6.93;;;17.10;1.00;;;;;;5060490;28;20499;-57
2022/10/23 09:02:00;;;;;;;6.90;6.20;;;17.10;1.00;;;;;;5050659;28;20434;-57
2022/10/23 09:04:26;;;;;;;7.73;6.47;;;17.20;1.00;;;;;;5059808;28;20415;-59
2022/10/23 09:07:11;;;;;;;7.80;7.00;;;17.20;1.00;;;;;;5051498;28;20438;-57
2022/10/23 09:09:54;;;;;;;7.67;6.97;;;17.30;1.00;;;;;;5055203;28;20498;-58
2022/10/23 09:12:23;;;;;;;9.57;7.13;;;17.40;1.00;;;;;;5057546;28;20423;-58
2022/10/23 09:15:07;;;;;;;7.40;6.40;;;17.60;1.00;;;;;;5060044;28;20468;-58
2022/10/23 09:17:37;;;;;;;7.33;6.63;;;17.60;1.00;;;;;;5053463;28;20443;-58
2022/10/23 09:20:20;;;;;;;6.93;6.20;;;17.80;1.00;;;;;;5056762;28;20448;-58
2022/10/23 09:22:48;;;;;;;7.93;5.87;;;17.90;1.00;;;;;;5060055;28;20421;-60
2022/10/23 09:25:20;;;;;;;8.20;6.17;;;18.10;1.00;;;;;;5062794;28;20500;-60
2022/10/23 09:27:52;;;;;;;7.23;6.53;;;18.30;1.00;;;;;;5048143;28;20455;-61
2022/10/23 09:30:40;;;;;;;6.00;5.47;;;18.50;1.00;;;;;;5046345;28;20457;-60
2022/10/23 09:33:18;;;;;;;7.40;5.87;;;18.80;1.00;;;;;;5044611;28;20450;-60
2022/10/23 09:35:54;;;;;;;6.70;6.00;;;18.90;1.00;;;;;;5049076;28;20439;-60
2022/10/23 09:38:46;;;;;;;7.43;6.00;;;18.90;1.00;;;;;;5046685;28;20536;-60
2022/10/23 09:41:21;;;;;;;6.20;5.60;;;19.00;1.00;;;;;;5047429;28;20466;-59
2022/10/23 09:43:58;;;;;;;7.00;6.23;;;19.00;1.00;;;;;;5054338;28;20470;-59
2022/10/23 09:46:23;;;;;;;7.07;5.70;;;18.90;1.00;;;;;;5056016;28;20475;-61
2022/10/23 09:48:57;;;;;;;6.77;5.87;;;19.00;1.00;;;;;;5052063;28;20497;-60
2022/10/23 09:51:22;;;;;;;6.20;5.40;;;19.10;1.00;;;;;;5053031;28;20212;-60
2022/10/23 09:53:50;;;;;;;5.30;4.80;;;19.10;1.00;;;;;;5048205;28;20507;-60
2022/10/23 09:56:38;;;;;;;6.43;5.70;;;19.00;1.00;;;;;;5051290;28;20659;-60
2022/10/23 09:59:21;;;;;;;6.07;5.37;;;18.80;1.00;;;;;;5054633;28;20947;-59
2022/10/23 10:01:55;;;;;;;6.37;5.40;;;18.70;1.00;;;;;;5053126;28;20450;-59
2022/10/23 10:04:32;;;;;;;6.53;5.53;;;18.70;1.00;;;;;;5051238;28;20810;-59
2022/10/23 10:06:58;;;;;;;6.20;5.60;;;18.90;1.00;;;;;;5048389;28;20477;-60
2022/10/23 10:09:24;;;;;;;6.53;5.40;;;18.90;1.00;;;;;;5051109;28;20430;-60
2022/10/23 10:11:58;;;;;;;7.30;5.60;;;18.80;1.00;;;;;;5049760;28;20431;-60
2022/10/23 10:14:44;;;;;;;6.10;5.50;;;18.90;1.00;;;;;;5049012;28;20461;-60
2022/10/23 10:17:48;;;;;;;6.20;5.60;;;18.90;1.00;;;;;;5048123;28;20443;-59
2022/10/23 10:20:32;;;;;;;7.10;6.00;;;18.90;1.00;;;;;;5049770;28;20478;-60
2022/10/23 10:23:10;;;;;;;7.63;5.90;;;18.90;1.00;;;;;;5050490;28;20439;-59
2022/10/23 10:25:43;;;;;;;7.00;6.30;;;19.00;1.00;;;;;;5050148;28;20464;-59
2022/10/23 10:28:39;;;;;;;7.87;5.50;;;19.00;1.00;;;;;;5048225;28;20457;-60
2022/10/23 10:31:20;;;;;;;6.10;5.50;;;18.90;1.00;;;;;;5066201;28;20453;-59
2022/10/23 10:34:05;;;;;;;6.47;5.87;;;18.90;1.00;;;;;;5047073;28;21046;-60
2022/10/23 10:36:46;;;;;;;7.20;5.63;;;18.90;1.00;;;;;;5050734;28;20496;-60
2022/10/23 10:39:33;;;;;;;8.90;5.53;;;19.00;1.00;;;;;;5048683;28;20530;-61
2022/10/23 10:42:07;;;;;;;6.20;5.37;;;19.10;1.00;;;;;;5049398;28;20418;-61
2022/10/23 10:44:47;;;;;;;6.37;5.77;;;19.10;1.00;;;;;;5049774;28;20620;-60
2022/10/23 10:47:15;;;;;;;7.63;5.63;;;19.00;1.00;;;;;;5047250;28;20461;-60
2022/10/23 10:50:04;;;;;;;7.50;5.27;;;18.90;1.00;;;;;;5050864;28;20452;-59
2022/10/23 10:52:33;;;;;;;5.80;5.30;;;19.10;1.00;;;;;;5045086;28;20452;-59
2022/10/23 10:55:22;;;;;;;6.03;5.53;;;19.30;1.00;;;;;;5047204;28;20414;-61
2022/10/23 10:58:23;;;;;;;6.00;5.40;;;19.30;1.00;;;;;;5047085;28;20452;-59
2022/10/23 11:00:57;;;;;;;6.70;6.07;;;19.50;1.00;;;;;;5049889;28;20932;-60
2022/10/23 11:03:45;;;;;;;7.10;4.80;;;19.50;1.00;;;;;;5052282;28;20773;-60
2022/10/23 11:06:17;;;;;;;5.17;4.57;;;19.50;1.00;;;;;;5045918;28;20479;-59
2022/10/23 11:08:43;;;;;;;5.50;5.00;;;19.50;1.00;;;;;;5049993;28;20950;-60
2022/10/23 11:11:31;;;;;;;7.70;5.20;;;19.50;1.00;;;;;;5048895;28;20420;-59
2022/10/23 11:13:57;;;;;;;6.30;5.47;;;19.50;1.00;;;;;;5049445;28;20568;-59
2022/10/23 11:16:26;;;;;;;5.33;4.83;;;19.50;1.00;;;;;;5053436;28;20407;-59
2022/10/23 11:19:26;;;;;;;6.07;4.63;;;19.70;1.00;;;;;;5062499;28;20424;-59
2022/10/23 11:22:28;;;;;;;5.73;5.13;;;19.80;1.00;;;;;;5057518;28;20841;-59
2022/10/23 11:25:18;;;;;;;5.40;4.90;;;19.90;1.00;;;;;;5058948;28;20444;-57
2022/10/23 11:28:00;;;;;;;4.60;4.17;;;19.80;1.00;;;;;;5058121;28;20441;-58
2022/10/23 11:30:39;;;;;;;5.33;4.80;;;19.80;1.00;;;;;;5058980;28;20403;-58
2022/10/23 11:33:35;;;;;;;5.80;4.83;;;19.70;1.00;;;;;;5064674;28;20509;-59
2022/10/23 11:36:18;;;;;;;5.83;4.93;;;19.70;1.00;;;;;;5058699;28;20435;-59
2022/10/23 11:38:49;;;;;;;6.00;5.50;;;19.60;1.00;;;;;;5059054;28;20714;-58
2022/10/23 11:41:32;;;;;;;6.90;4.70;;;19.40;1.00;;;;;;5066802;28;20435;-58
2022/10/23 11:44:04;;;;;;;5.17;4.67;;;19.30;1.00;;;;;;5050539;28;20777;-58
2022/10/23 11:46:35;;;;;;;5.47;4.97;;;19.10;1.00;;;;;;5050659;28;20466;-58
2022/10/23 11:49:04;;;;;;;5.63;5.10;;;19.00;1.00;;;;;;5049657;28;20418;-57
2022/10/23 11:51:38;;;;;;;5.67;5.17;;;19.00;1.00;;;;;;5050426;28;21013;-59
2022/10/23 11:54:26;;;;;;;5.47;4.97;;;19.00;1.00;;;;;;5050002;28;20436;-59
2022/10/23 11:57:11;;;;;;;5.40;4.90;;;18.90;1.00;;;;;;5048414;28;20451;-58
2022/10/23 11:59:51;;;;;;;5.53;4.93;;;18.70;1.00;;;;;;5058816;28;20469;-58
2022/10/23 12:02:30;;;;;;;5.40;4.90;;;18.50;1.00;;;;;;5045935;28;20825;-58
2022/10/23 12:05:00;;;;;;;6.27;5.30;;;18.40;1.00;;;;;;5046232;28;20416;-58
2022/10/23 12:07:29;;;;;;;5.87;4.77;;;18.40;1.00;;;;;;5045241;28;20508;-57
2022/10/23 12:10:04;;;;;;;6.00;5.40;;;18.40;1.00;;;;;;5050363;28;20410;-58
2022/10/23 12:12:41;;;;;;;5.40;4.80;;;18.30;1.00;;;;;;5050347;28;20505;-58
2022/10/23 12:15:10;;;;;;;5.70;5.10;;;18.30;1.00;;;;;;5047140;28;20418;-58
2022/10/23 12:17:38;;;;;;;5.63;4.97;;;18.30;1.00;;;;;;5045761;28;20942;-59
2022/10/23 12:20:20;;;;;;;6.77;6.07;;;18.20;1.00;;;;;;5047279;28;20444;-59
2022/10/23 12:23:16;;;;;;;6.20;5.53;;;18.10;1.00;;;;;;5046402;28;20430;-58
2022/10/23 12:25:56;;;;;;;6.40;5.20;;;18.10;1.00;;;;;;5047816;28;20469;-60
2022/10/23 12:28:27;;;;;;;6.30;5.63;;;18.10;1.00;;;;;;5046307;28;20445;-59
2022/10/23 12:31:15;;;;;;;8.07;5.67;;;18.10;1.00;;;;;;5047127;28;20414;-59
2022/10/23 12:33:57;;;;;;;5.93;5.10;;;18.10;1.00;;;;;;5047439;28;20795;-59
2022/10/23 12:37:14;;;;;;;6.50;5.40;;;18.10;1.00;;;;;;5047663;28;20857;-59
2022/10/23 12:39:40;;;;;;;11.40;5.07;;;18.30;1.00;;;;;;5035537;28;20432;-59
2022/10/23 12:42:17;;;;;;;6.97;5.07;;;18.40;1.00;;;;;;5050246;28;20461;-59
2022/10/23 12:44:43;;;;;;;5.20;4.70;;;18.40;1.00;;;;;;5049110;28;20441;-59
2022/10/23 12:47:17;;;;;;;6.10;4.77;;;18.40;1.00;;;;;;5046746;28;20788;-59
2022/10/23 12:49:48;;;;;;;7.40;4.73;;;18.50;1.00;;;;;;5046663;28;20188;-58
2022/10/23 12:52:16;;;;;;;5.90;5.40;;;18.70;1.00;;;;;;5046698;28;20766;-59
2022/10/23 12:54:41;;;;;;;7.00;6.30;;;18.70;1.00;;;;;;5048020;28;20491;-59
2022/10/23 12:57:20;;;;;;;6.60;6.00;;;18.80;1.00;;;;;;5047293;28;20423;-60
2022/10/23 12:59:46;;;;;;;8.50;6.30;;;18.90;1.00;;;;;;5046202;28;20194;-59
2022/10/23 13:02:21;;;;;;;6.17;5.57;;;18.80;1.00;;;;;;5046157;28;20455;-60
2022/10/23 13:04:49;;;;;;;7.00;6.30;;;18.80;1.00;;;;;;5046348;28;20419;-58